createdAt,value
2018-09-26T00:00:44.568Z,99324.00
2018-09-26T00:03:17.741Z,99314.00
2018-09-26T00:05:50.393Z,99314.00
2018-09-26T00:08:19.583Z,99310.00
2018-09-26T00:10:49.236Z,99290.00
2018-09-26T00:13:18.525Z,99296.00
2018-09-26T00:15:47.947Z,99311.00
2018-09-26T00:18:17.128Z,99296.00
2018-09-26T00:20:46.340Z,99295.00
2018-09-26T00:23:15.550Z,99296.00
2018-09-26T00:25:45.018Z,99316.00
2018-09-26T00:28:14.201Z,99315.00
2018-09-26T00:30:43.468Z,99315.00
2018-09-26T00:33:13.156Z,99318.00
2018-09-26T00:35:42.443Z,99310.00
2018-09-26T00:38:11.810Z,99295.00
2018-09-26T00:40:41.956Z,99308.00
2018-09-26T00:43:11.237Z,99322.00
2018-09-26T00:45:40.493Z,99317.00
2018-09-26T00:48:09.710Z,99299.00
2018-09-26T00:50:38.918Z,99288.00
2018-09-26T00:53:08.256Z,99297.00
2018-09-26T00:55:37.510Z,99293.00
2018-09-26T00:58:06.866Z,99295.00
2018-09-26T01:00:36.064Z,99308.00
2018-09-26T01:03:05.276Z,99318.00
2018-09-26T01:05:34.485Z,99305.00
2018-09-26T01:08:03.708Z,99307.00
2018-09-26T01:10:32.905Z,99299.00
2018-09-26T01:13:02.157Z,99306.00
2018-09-26T01:15:31.357Z,99307.00
2018-09-26T01:18:00.573Z,99295.00
2018-09-26T01:20:29.761Z,99299.00
2018-09-26T01:22:58.996Z,99306.00
2018-09-26T01:25:28.177Z,99290.00
2018-09-26T01:27:57.380Z,99291.00
2018-09-26T01:30:26.594Z,99286.00
2018-09-26T01:32:55.817Z,99293.00
2018-09-26T01:35:25.385Z,99288.00
2018-09-26T01:37:54.600Z,99288.00
2018-09-26T01:40:23.815Z,99279.00
2018-09-26T01:42:53.053Z,99283.00
2018-09-26T01:45:22.248Z,99270.00
2018-09-26T01:47:51.638Z,99279.00
2018-09-26T01:50:20.821Z,99269.00
2018-09-26T01:52:50.022Z,99268.00
2018-09-26T01:55:19.213Z,99264.00
2018-09-26T01:57:48.413Z,99269.00
2018-09-26T02:00:17.597Z,99274.00
2018-09-26T02:02:46.805Z,99282.00
2018-09-26T02:05:16.033Z,99265.00
2018-09-26T02:07:45.404Z,99290.00
2018-09-26T02:10:14.613Z,99266.00
2018-09-26T02:12:43.865Z,99259.00
2018-09-26T02:15:13.076Z,99250.00
2018-09-26T02:17:42.285Z,99256.00
2018-09-26T02:20:11.503Z,99242.00
2018-09-26T02:22:40.722Z,99239.00
2018-09-26T02:25:09.929Z,99233.00
2018-09-26T02:27:45.886Z,99250.00
2018-09-26T02:30:15.082Z,99243.00
2018-09-26T02:32:44.297Z,99251.00
2018-09-26T02:35:13.534Z,99247.00
2018-09-26T02:37:43.173Z,99241.00
2018-09-26T02:40:12.405Z,99237.00
2018-09-26T02:42:41.624Z,99228.00
2018-09-26T02:45:10.933Z,99216.00
2018-09-26T02:47:40.143Z,99213.00
2018-09-26T02:50:09.521Z,99200.00
2018-09-26T02:52:38.826Z,99200.00
2018-09-26T02:55:08.049Z,99206.00
2018-09-26T02:57:37.284Z,99197.00
2018-09-26T03:00:06.520Z,99197.00
2018-09-26T03:02:35.728Z,99184.00
2018-09-26T03:05:04.940Z,99180.00
2018-09-26T03:07:34.144Z,99174.00
2018-09-26T03:10:03.484Z,99174.00
2018-09-26T03:12:32.735Z,99180.00
2018-09-26T03:15:01.958Z,99171.00
2018-09-26T03:17:31.201Z,99178.00
2018-09-26T03:20:00.440Z,99183.00
2018-09-26T03:22:29.659Z,99169.00
2018-09-26T03:24:58.850Z,99197.00
2018-09-26T03:27:28.084Z,99174.00
2018-09-26T03:29:57.281Z,99173.00
2018-09-26T03:32:32.704Z,99170.00
2018-09-26T03:35:01.897Z,99170.00
2018-09-26T03:37:31.467Z,99164.00
2018-09-26T03:40:00.742Z,99163.00
2018-09-26T03:42:29.955Z,99156.00
2018-09-26T03:44:59.154Z,99157.00
2018-09-26T03:47:28.381Z,99174.00
2018-09-26T03:49:57.591Z,99168.00
2018-09-26T03:52:26.789Z,99160.00
2018-09-26T03:54:56.076Z,99172.00
2018-09-26T03:57:25.325Z,99157.00
2018-09-26T03:59:54.556Z,99166.00
2018-09-26T04:02:23.760Z,99160.00
2018-09-26T04:04:53.034Z,99164.00
2018-09-26T04:07:22.249Z,99170.00
2018-09-26T04:11:20.550Z,99167.00
2018-09-26T04:13:49.777Z,99161.00
2018-09-26T04:16:18.963Z,99176.00
2018-09-26T04:18:48.264Z,99158.00
2018-09-26T04:21:17.453Z,99164.00
2018-09-26T04:23:46.681Z,99171.00
2018-09-26T04:26:15.891Z,99169.00
2018-09-26T04:28:45.140Z,99161.00
2018-09-26T04:31:14.350Z,99164.00
2018-09-26T04:33:43.668Z,99165.00
2018-09-26T04:36:12.834Z,99162.00
2018-09-26T04:38:42.145Z,99149.00
2018-09-26T04:41:11.338Z,99163.00
2018-09-26T04:43:40.552Z,99168.00
2018-09-26T04:46:09.913Z,99164.00
2018-09-26T04:48:39.132Z,99170.00
2018-09-26T04:51:08.321Z,99163.00
2018-09-26T04:53:37.574Z,99165.00
2018-09-26T04:56:06.801Z,99160.00
2018-09-26T04:58:36.005Z,99150.00
2018-09-26T05:01:05.217Z,99148.00
2018-09-26T05:03:34.424Z,99136.00
2018-09-26T05:06:03.604Z,99139.00
2018-09-26T05:08:32.835Z,99147.00
2018-09-26T05:11:02.063Z,99137.00
2018-09-26T05:13:31.275Z,99142.00
2018-09-26T05:16:00.666Z,99148.00
2018-09-26T05:18:29.906Z,99157.00
2018-09-26T05:20:59.132Z,99154.00
2018-09-26T05:23:28.344Z,99150.00
2018-09-26T05:25:57.560Z,99170.00
2018-09-26T05:28:26.773Z,99177.00
2018-09-26T05:30:55.969Z,99162.00
2018-09-26T05:33:25.187Z,99159.00
2018-09-26T05:35:54.391Z,99145.00
2018-09-26T05:38:23.619Z,99155.00
2018-09-26T05:40:52.841Z,99132.00
2018-09-26T05:43:22.069Z,99128.00
2018-09-26T05:45:51.325Z,99131.00
2018-09-26T05:48:20.533Z,99143.00
2018-09-26T05:50:49.728Z,99150.00
2018-09-26T05:53:18.938Z,99137.00
2018-09-26T05:55:48.202Z,99134.00
2018-09-26T05:58:17.449Z,99127.00
2018-09-26T06:00:46.685Z,99133.00
2018-09-26T06:03:15.896Z,99133.00
2018-09-26T06:05:45.108Z,99128.00
2018-09-26T06:08:14.312Z,99126.00
2018-09-26T06:10:43.553Z,99131.00
2018-09-26T06:13:12.769Z,99116.00
2018-09-26T06:15:41.935Z,99119.00
2018-09-26T06:18:11.153Z,99110.00
2018-09-26T06:20:40.389Z,99120.00
2018-09-26T06:23:09.741Z,99112.00
2018-09-26T06:25:38.913Z,99109.00
2018-09-26T06:28:08.081Z,99111.00
2018-09-26T06:30:37.281Z,99117.00
2018-09-26T06:33:06.532Z,99108.00
2018-09-26T06:35:35.736Z,99111.00
2018-09-26T06:38:04.912Z,99111.00
2018-09-26T06:40:34.181Z,99099.00
2018-09-26T06:43:03.316Z,99095.00
2018-09-26T06:45:32.525Z,99111.00
2018-09-26T06:48:01.720Z,99117.00
2018-09-26T06:50:30.895Z,99122.00
2018-09-26T06:53:00.082Z,99124.00
2018-09-26T06:55:29.297Z,99138.00
2018-09-26T06:57:58.555Z,99132.00
2018-09-26T07:00:27.769Z,99130.00
2018-09-26T07:02:57.032Z,99137.00
2018-09-26T07:05:26.273Z,99132.00
2018-09-26T07:07:55.470Z,99111.00
2018-09-26T07:10:24.744Z,99110.00
2018-09-26T07:12:53.913Z,99104.00
2018-09-26T07:15:23.149Z,99092.00
2018-09-26T07:17:52.339Z,99082.00
2018-09-26T07:20:22.261Z,99099.00
2018-09-26T07:22:51.501Z,99094.00
2018-09-26T07:25:20.705Z,99102.00
2018-09-26T07:27:49.906Z,99103.00
2018-09-26T07:30:19.165Z,99099.00
2018-09-26T07:32:48.373Z,99104.00
2018-09-26T07:35:17.591Z,99097.00
2018-09-26T07:37:46.768Z,99101.00
2018-09-26T07:40:15.987Z,99102.00
2018-09-26T07:42:45.425Z,99122.00
2018-09-26T07:45:14.697Z,99109.00
2018-09-26T07:47:44.155Z,99113.00
2018-09-26T07:50:13.437Z,99127.00
2018-09-26T07:52:42.682Z,99110.00
2018-09-26T07:55:11.909Z,99114.00
2018-09-26T07:57:41.169Z,99124.00
2018-09-26T08:00:10.434Z,99114.00
2018-09-26T08:02:39.756Z,99113.00
2018-09-26T08:05:09.373Z,99117.00
2018-09-26T08:07:38.595Z,99122.00
2018-09-26T08:10:07.886Z,99122.00
2018-09-26T08:12:37.125Z,99122.00
2018-09-26T08:15:06.498Z,99124.00
2018-09-26T08:17:35.703Z,99124.00
2018-09-26T08:20:04.938Z,99123.00
2018-09-26T08:22:34.165Z,99121.00
2018-09-26T08:25:04.005Z,99120.00
2018-09-26T08:27:33.245Z,99121.00
2018-09-26T08:30:02.473Z,99132.00
2018-09-26T08:32:31.744Z,99120.00
2018-09-26T08:35:01.037Z,99115.00
2018-09-26T08:37:30.232Z,99126.00
2018-09-26T08:39:59.562Z,99119.00
2018-09-26T08:42:28.832Z,99115.00
2018-09-26T08:44:58.138Z,99112.00
2018-09-26T08:47:27.367Z,99118.00
2018-09-26T08:49:56.621Z,99122.00
2018-09-26T08:52:25.817Z,99119.00
2018-09-26T08:54:55.105Z,99104.00
2018-09-26T08:57:24.316Z,99113.00
2018-09-26T08:59:53.528Z,99119.00
2018-09-26T09:02:22.810Z,99112.00
2018-09-26T09:04:52.073Z,99102.00
2018-09-26T09:07:21.328Z,99123.00
2018-09-26T09:09:50.606Z,99102.00
2018-09-26T09:12:19.817Z,99101.00
2018-09-26T09:14:49.256Z,99099.00
2018-09-26T09:17:18.317Z,99092.00
2018-09-26T09:19:47.685Z,99082.00
2018-09-26T09:22:16.945Z,99086.00
2018-09-26T09:24:46.180Z,99079.00
2018-09-26T09:27:15.410Z,99074.00
2018-09-26T09:29:44.685Z,99069.00
2018-09-26T09:32:13.908Z,99073.00
2018-09-26T09:34:43.229Z,99078.00
2018-09-26T09:37:12.517Z,99050.00
2018-09-26T09:39:41.867Z,99057.00
2018-09-26T09:42:11.113Z,99072.00
2018-09-26T09:44:40.381Z,99067.00
2018-09-26T09:47:09.627Z,99065.00
2018-09-26T09:49:38.868Z,99055.00
2018-09-26T09:52:08.104Z,99038.00
2018-09-26T09:54:37.357Z,99051.00
2018-09-26T09:57:06.649Z,99056.00
2018-09-26T09:59:35.857Z,99059.00
2018-09-26T10:02:05.127Z,99044.00
2018-09-26T10:04:34.404Z,99052.00
2018-09-26T10:07:03.727Z,99043.00
2018-09-26T10:09:32.972Z,99051.00
2018-09-26T10:12:02.211Z,99051.00
2018-09-26T10:14:31.513Z,99057.00
2018-09-26T10:17:00.698Z,99055.00
2018-09-26T10:19:29.899Z,99051.00
2018-09-26T10:21:59.125Z,99055.00
2018-09-26T10:27:02.737Z,99052.00
2018-09-26T10:29:32.658Z,99047.00
2018-09-26T10:32:01.993Z,99021.00
2018-09-26T10:34:31.566Z,99049.00
2018-09-26T10:37:00.838Z,99041.00
2018-09-26T10:39:30.120Z,99036.00
2018-09-26T10:41:59.461Z,99048.00
2018-09-26T10:44:28.705Z,99057.00
2018-09-26T10:46:57.963Z,99053.00
2018-09-26T10:49:27.226Z,99040.00
2018-09-26T10:51:56.483Z,99034.00
2018-09-26T10:54:25.730Z,99028.00
2018-09-26T10:56:55.027Z,99030.00
2018-09-26T10:59:24.306Z,99023.00
2018-09-26T11:01:53.740Z,99015.00
2018-09-26T11:04:23.082Z,99011.00
2018-09-26T11:06:52.380Z,99008.00
2018-09-26T11:09:21.718Z,99008.00
2018-09-26T11:11:51.089Z,99002.00
2018-09-26T11:14:21.576Z,99006.00
2018-09-26T11:16:50.792Z,98992.00
2018-09-26T11:19:20.024Z,98982.00
2018-09-26T11:21:49.289Z,98984.00
2018-09-26T11:24:18.622Z,98982.00
2018-09-26T11:26:47.892Z,98987.00
2018-09-26T11:29:17.132Z,98978.00
2018-09-26T11:31:46.422Z,98987.00
2018-09-26T11:34:16.430Z,98978.00
2018-09-26T11:36:45.648Z,98969.00
2018-09-26T11:39:14.897Z,98968.00
2018-09-26T11:41:44.273Z,98972.00
2018-09-26T11:44:13.539Z,98957.00
2018-09-26T11:46:42.767Z,98964.00
2018-09-26T11:49:11.965Z,98962.00
2018-09-26T11:51:41.204Z,98957.00
2018-09-26T11:54:10.426Z,98951.00
2018-09-26T11:56:39.684Z,98957.00
2018-09-26T11:59:09.141Z,98948.00
2018-09-26T12:01:38.406Z,98939.00
2018-09-26T12:04:07.797Z,98930.00
2018-09-26T12:06:37.073Z,98936.00
2018-09-26T12:09:08.179Z,98936.00
2018-09-26T12:11:37.633Z,98939.00
2018-09-26T12:14:07.178Z,98932.00
2018-09-26T12:16:36.578Z,98927.00
2018-09-26T12:19:06.090Z,98927.00
2018-09-26T12:21:36.155Z,98932.00
2018-09-26T12:24:05.750Z,98928.00
2018-09-26T12:26:35.418Z,98930.00
2018-09-26T12:29:04.684Z,98918.00
2018-09-26T12:31:34.045Z,98926.00
2018-09-26T12:34:03.455Z,98922.00
2018-09-26T12:36:33.421Z,98923.00
2018-09-26T12:39:06.047Z,98926.00
2018-09-26T12:41:37.539Z,98922.00
2018-09-26T12:44:08.019Z,98915.00
2018-09-26T12:46:38.146Z,98904.00
2018-09-26T12:49:09.380Z,98921.00
2018-09-26T12:51:43.400Z,98917.00
2018-09-26T12:54:14.908Z,98915.00
2018-09-26T12:56:45.533Z,98913.00
2018-09-26T12:59:15.400Z,98909.00
2018-09-26T13:01:44.994Z,98907.00
2018-09-26T13:04:14.923Z,98916.00
2018-09-26T13:06:44.642Z,98907.00
2018-09-26T13:09:14.182Z,98900.00
2018-09-26T13:11:43.502Z,98893.00
2018-09-26T13:14:12.865Z,98901.00
2018-09-26T13:16:42.264Z,98924.00
2018-09-26T13:19:11.510Z,98897.00
2018-09-26T13:21:40.784Z,98887.00
2018-09-26T13:24:10.117Z,98889.00
2018-09-26T13:26:39.393Z,98886.00
2018-09-26T13:29:08.833Z,98886.00
2018-09-26T13:31:38.109Z,98885.00
2018-09-26T13:34:07.414Z,98886.00
2018-09-26T13:36:36.733Z,98886.00
2018-09-26T13:39:07.853Z,98872.00
2018-09-26T13:41:37.332Z,98883.00
2018-09-26T13:44:06.631Z,98877.00
2018-09-26T13:46:36.104Z,98871.00
2018-09-26T13:49:05.229Z,98869.00
2018-09-26T13:51:34.634Z,98876.00
2018-09-26T13:54:04.425Z,98879.00
2018-09-26T13:56:33.929Z,98878.00
2018-09-26T13:59:04.662Z,98882.00
2018-09-26T14:01:34.283Z,98876.00
2018-09-26T14:04:03.663Z,98879.00
2018-09-26T14:06:32.965Z,98879.00
2018-09-26T14:09:02.293Z,98881.00
2018-09-26T14:11:31.649Z,98869.00
2018-09-26T14:14:00.920Z,98872.00
2018-09-26T14:16:30.148Z,98874.00
2018-09-26T14:18:59.426Z,98872.00
2018-09-26T14:21:39.495Z,98870.00
2018-09-26T14:24:09.511Z,98863.00
2018-09-26T14:26:39.086Z,98859.00
2018-09-26T14:29:08.689Z,98851.00
2018-09-26T14:31:38.292Z,98849.00
2018-09-26T14:34:08.091Z,98852.00
2018-09-26T14:36:37.722Z,98849.00
2018-09-26T14:39:08.926Z,98852.00
2018-09-26T14:41:38.590Z,98847.00
2018-09-26T14:44:08.474Z,98861.00
2018-09-26T14:46:38.053Z,98848.00
2018-09-26T14:49:07.799Z,98852.00
2018-09-26T14:51:37.516Z,98849.00
2018-09-26T14:54:07.429Z,98844.00
2018-09-26T14:56:37.024Z,98847.00
2018-09-26T14:59:07.314Z,98840.00
2018-09-26T15:01:37.886Z,98832.00
2018-09-26T15:04:08.124Z,98851.00
2018-09-26T15:06:37.693Z,98838.00
2018-09-26T15:09:08.063Z,98835.00
2018-09-26T15:11:37.657Z,98822.00
2018-09-26T15:14:07.366Z,98826.00
2018-09-26T15:16:36.945Z,98822.00
2018-09-26T15:19:07.249Z,98826.00
2018-09-26T15:21:36.884Z,98816.00
2018-09-26T15:24:06.631Z,98804.00
2018-09-26T15:26:36.328Z,98804.00
2018-09-26T15:29:06.346Z,98811.00
2018-09-26T15:31:36.170Z,98801.00
2018-09-26T15:34:06.475Z,98809.00
2018-09-26T15:36:36.732Z,98813.00
2018-09-26T15:39:09.995Z,98810.00
2018-09-26T15:41:40.193Z,98792.00
2018-09-26T15:44:09.999Z,98783.00
2018-09-26T15:46:39.581Z,98788.00
2018-09-26T15:49:09.273Z,98800.00
2018-09-26T15:51:38.862Z,98779.00
2018-09-26T15:54:08.864Z,98779.00
2018-09-26T15:56:38.373Z,98783.00
2018-09-26T15:59:07.950Z,98784.00
2018-09-26T16:01:37.497Z,98785.00
2018-09-26T16:04:24.455Z,98787.00
2018-09-26T16:06:53.677Z,98778.00
2018-09-26T16:09:22.934Z,98771.00
2018-09-26T16:11:52.160Z,98784.00
2018-09-26T16:15:24.231Z,98795.00
2018-09-26T16:17:53.634Z,98795.00
2018-09-26T16:20:22.871Z,98785.00
2018-09-26T16:22:52.176Z,98799.00
2018-09-26T16:25:21.405Z,98805.00
2018-09-26T16:27:50.662Z,98801.00
2018-09-26T16:30:19.946Z,98802.00
2018-09-26T16:32:49.135Z,98802.00
2018-09-26T16:35:18.402Z,98799.00
2018-09-26T16:37:47.613Z,98802.00
2018-09-26T16:40:16.979Z,98802.00
2018-09-26T16:42:46.260Z,98813.00
2018-09-26T16:45:15.621Z,98804.00
2018-09-26T16:47:44.776Z,98803.00
2018-09-26T16:50:14.034Z,98806.00
2018-09-26T16:52:43.397Z,98796.00
2018-09-26T16:55:12.622Z,98796.00
2018-09-26T16:57:41.901Z,98786.00
2018-09-26T17:00:11.189Z,98799.00
2018-09-26T17:02:40.396Z,98800.00
2018-09-26T17:05:09.625Z,98805.00
2018-09-26T17:07:38.839Z,98803.00
2018-09-26T17:10:08.085Z,98810.00
2018-09-26T17:12:37.296Z,98803.00
2018-09-26T17:15:06.522Z,98805.00
2018-09-26T17:17:35.737Z,98807.00
2018-09-26T17:20:04.986Z,98812.00
2018-09-26T17:22:34.185Z,98820.00
2018-09-26T17:25:03.433Z,98803.00
2018-09-26T17:27:32.641Z,98799.00
2018-09-26T17:30:01.934Z,98806.00
2018-09-26T17:32:31.184Z,98809.00
2018-09-26T17:35:00.442Z,98813.00
2018-09-26T17:37:29.734Z,98848.00
2018-09-26T17:39:58.980Z,98813.00
2018-09-26T17:42:28.295Z,98821.00
2018-09-26T17:44:57.500Z,98826.00
2018-09-26T17:47:26.738Z,98818.00
2018-09-26T17:49:55.972Z,98819.00
2018-09-26T17:52:25.281Z,98819.00
2018-09-26T17:54:54.424Z,98818.00
2018-09-26T17:57:23.645Z,98828.00
2018-09-26T17:59:52.861Z,98822.00
2018-09-26T18:02:22.117Z,98825.00
2018-09-26T18:04:51.362Z,98827.00
2018-09-26T18:07:20.585Z,98822.00
2018-09-26T18:09:49.833Z,98830.00
2018-09-26T18:12:25.769Z,98827.00
2018-09-26T18:14:55.011Z,98828.00
2018-09-26T18:17:24.304Z,98823.00
2018-09-26T18:19:53.504Z,98832.00
2018-09-26T18:22:22.697Z,98818.00
2018-09-26T18:24:51.931Z,98817.00
2018-09-26T18:27:21.160Z,98821.00
2018-09-26T18:29:50.401Z,98819.00
2018-09-26T18:32:19.601Z,98820.00
2018-09-26T18:34:48.829Z,98820.00
2018-09-26T18:37:18.049Z,98814.00
2018-09-26T18:39:47.398Z,98806.00
2018-09-26T18:42:16.645Z,98803.00
2018-09-26T18:44:45.897Z,98815.00
2018-09-26T18:47:15.151Z,98810.00
2018-09-26T18:49:44.484Z,98814.00
2018-09-26T18:52:13.765Z,98814.00
2018-09-26T18:54:42.995Z,98812.00
2018-09-26T18:57:12.210Z,98812.00
2018-09-26T18:59:41.478Z,98819.00
2018-09-26T19:02:10.690Z,98821.00
2018-09-26T19:04:40.079Z,98824.00
2018-09-26T19:07:09.245Z,98829.00
2018-09-26T19:09:38.484Z,98829.00
2018-09-26T19:12:07.714Z,98839.00
2018-09-26T19:14:36.965Z,98835.00
2018-09-26T19:17:06.487Z,98844.00
2018-09-26T19:19:35.703Z,98850.00
2018-09-26T19:22:04.937Z,98847.00
2018-09-26T19:24:34.181Z,98847.00
2018-09-26T19:27:03.435Z,98842.00
2018-09-26T19:29:32.650Z,98843.00
2018-09-26T19:32:01.856Z,98843.00
2018-09-26T19:34:31.078Z,98840.00
2018-09-26T19:37:00.276Z,98831.00
2018-09-26T19:39:29.514Z,98828.00
2018-09-26T19:41:59.372Z,98824.00
2018-09-26T19:44:29.269Z,98817.00
2018-09-26T19:46:58.548Z,98820.00
2018-09-26T19:49:31.896Z,98823.00
2018-09-26T19:52:01.131Z,98820.00
2018-09-26T19:54:30.361Z,98819.00
2018-09-26T19:56:59.594Z,98810.00
2018-09-26T19:59:28.801Z,98810.00
2018-09-26T20:01:58.105Z,98808.00
2018-09-26T20:04:27.317Z,98818.00
2018-09-26T20:06:56.547Z,98799.00
2018-09-26T20:09:25.789Z,98810.00
2018-09-26T20:11:55.010Z,98811.00
2018-09-26T20:14:24.215Z,98816.00
2018-09-26T20:16:53.448Z,98828.00
2018-09-26T20:19:22.679Z,98811.00
2018-09-26T20:21:51.927Z,98812.00
2018-09-26T20:24:21.129Z,98814.00
2018-09-26T20:26:50.493Z,98811.00
2018-09-26T20:29:19.680Z,98818.00
2018-09-26T20:31:48.832Z,98801.00
2018-09-26T20:34:18.051Z,98805.00
2018-09-26T20:36:47.267Z,98808.00
2018-09-26T20:39:16.469Z,98798.00
2018-09-26T20:41:45.734Z,98801.00
2018-09-26T20:44:14.927Z,98798.00
2018-09-26T20:46:44.162Z,98800.00
2018-09-26T20:49:13.382Z,98797.00
2018-09-26T20:51:42.619Z,98801.00
2018-09-26T20:54:12.026Z,98795.00
2018-09-26T20:56:41.253Z,98801.00
2018-09-26T20:59:10.451Z,98799.00
2018-09-26T21:01:39.683Z,98807.00
2018-09-26T21:04:08.887Z,98810.00
2018-09-26T21:06:38.137Z,98803.00
2018-09-26T21:09:09.942Z,98812.00
2018-09-26T21:11:39.211Z,98842.00
2018-09-26T21:14:08.685Z,98807.00
2018-09-26T21:16:38.007Z,98813.00
2018-09-26T21:19:07.242Z,98812.00
2018-09-26T21:21:36.474Z,98811.00
2018-09-26T21:24:05.664Z,98805.00
2018-09-26T21:26:34.893Z,98800.00
2018-09-26T21:29:04.104Z,98799.00
2018-09-26T21:31:33.361Z,98806.00
2018-09-26T21:34:02.572Z,98800.00
2018-09-26T21:36:31.892Z,98799.00
2018-09-26T21:39:01.138Z,98802.00
2018-09-26T21:41:30.378Z,98807.00
2018-09-26T21:43:59.592Z,98803.00
2018-09-26T21:46:28.820Z,98803.00
2018-09-26T21:48:58.019Z,98822.00
2018-09-26T21:51:27.261Z,98813.00
2018-09-26T21:53:56.467Z,98813.00
2018-09-26T21:56:25.712Z,98809.00
2018-09-26T21:58:54.918Z,98800.00
2018-09-26T22:01:28.271Z,98809.00
2018-09-26T22:03:57.478Z,98811.00
2018-09-26T22:06:26.746Z,98812.00
2018-09-26T22:08:56.081Z,98817.00
2018-09-26T22:11:25.308Z,98819.00
2018-09-26T22:13:54.521Z,98814.00
2018-09-26T22:16:23.769Z,98823.00
2018-09-26T22:18:52.977Z,98822.00
2018-09-26T22:21:22.198Z,98823.00
2018-09-26T22:23:57.783Z,98829.00
2018-09-26T22:26:26.980Z,98820.00
2018-09-26T22:28:56.178Z,98833.00
2018-09-26T22:31:25.410Z,98839.00
2018-09-26T22:33:54.644Z,98827.00
2018-09-26T22:36:23.868Z,98834.00
2018-09-26T22:38:53.067Z,98830.00
2018-09-26T22:41:22.300Z,98824.00
2018-09-26T22:43:51.533Z,98826.00
2018-09-26T22:46:20.769Z,98845.00
2018-09-26T22:48:49.966Z,98844.00
2018-09-26T22:51:19.196Z,98838.00
2018-09-26T22:53:48.420Z,98850.00
2018-09-26T22:56:17.681Z,98836.00
2018-09-26T22:58:46.876Z,98841.00
2018-09-26T23:01:16.109Z,98836.00
2018-09-26T23:03:45.305Z,98836.00
2018-09-26T23:06:14.558Z,98833.00
2018-09-26T23:08:43.754Z,98840.00
2018-09-26T23:11:12.967Z,98832.00
2018-09-26T23:13:42.178Z,98829.00
2018-09-26T23:16:11.444Z,98830.00
2018-09-26T23:18:40.653Z,98834.00
2018-09-26T23:21:09.937Z,98826.00
2018-09-26T23:23:39.129Z,98830.00
2018-09-26T23:26:08.324Z,98824.00
2018-09-26T23:28:37.544Z,98825.00
2018-09-26T23:31:06.741Z,98826.00
2018-09-26T23:33:35.952Z,98823.00
2018-09-26T23:36:05.169Z,98817.00
2018-09-26T23:38:34.668Z,98817.00
2018-09-26T23:41:03.916Z,98832.00
2018-09-26T23:43:33.169Z,98817.00
2018-09-26T23:46:02.401Z,98818.00
2018-09-26T23:48:31.619Z,98812.00
2018-09-26T23:51:00.818Z,98820.00
2018-09-26T23:53:30.044Z,98816.00
2018-09-26T23:55:59.225Z,98816.00
2018-09-26T23:58:28.457Z,98809.00
